sensor_id;sensor_type;location;lat;lon;timestamp;temperature;humidity
72126;SHT31;59999;51.676;22.650;2023-04-24T00:00:16;9.09;71.43
72126;SHT31;59999;51.676;22.650;2023-04-24T00:03:03;9.00;71.58
72126;SHT31;59999;51.676;22.650;2023-04-24T00:05:29;8.93;71.90
72126;SHT31;59999;51.676;22.650;2023-04-24T00:07:55;8.89;72.05
72126;SHT31;59999;51.676;22.650;2023-04-24T00:10:21;8.84;72.27
72126;SHT31;59999;51.676;22.650;2023-04-24T00:12:47;8.80;72.36
72126;SHT31;59999;51.676;22.650;2023-04-24T00:15:13;8.72;72.48
72126;SHT31;59999;51.676;22.650;2023-04-24T00:17:39;8.71;72.76
72126;SHT31;59999;51.676;22.650;2023-04-24T00:20:06;8.66;72.92
72126;SHT31;59999;51.676;22.650;2023-04-24T00:22:33;8.63;73.01
72126;SHT31;59999;51.676;22.650;2023-04-24T00:24:59;8.59;73.16
72126;SHT31;59999;51.676;22.650;2023-04-24T00:27:25;8.61;73.08
72126;SHT31;59999;51.676;22.650;2023-04-24T00:29:51;8.59;73.07
72126;SHT31;59999;51.676;22.650;2023-04-24T00:32:17;8.58;73.08
72126;SHT31;59999;51.676;22.650;2023-04-24T00:34:43;8.58;73.07
72126;SHT31;59999;51.676;22.650;2023-04-24T00:37:09;8.55;73.11
72126;SHT31;59999;51.676;22.650;2023-04-24T00:39:35;8.54;73.15
72126;SHT31;59999;51.676;22.650;2023-04-24T00:42:01;8.55;73.15
72126;SHT31;59999;51.676;22.650;2023-04-24T00:44:27;8.55;73.04
72126;SHT31;59999;51.676;22.650;2023-04-24T00:46:54;8.54;73.03
72126;SHT31;59999;51.676;22.650;2023-04-24T00:49:21;8.55;73.03
72126;SHT31;59999;51.676;22.650;2023-04-24T00:51:47;8.55;73.03
72126;SHT31;59999;51.676;22.650;2023-04-24T00:54:15;8.52;73.13
72126;SHT31;59999;51.676;22.650;2023-04-24T00:56:42;8.52;73.16
72126;SHT31;59999;51.676;22.650;2023-04-24T00:59:08;8.51;73.15
72126;SHT31;59999;51.676;22.650;2023-04-24T01:01:35;8.46;73.19
72126;SHT31;59999;51.676;22.650;2023-04-24T01:04:01;8.45;73.27
72126;SHT31;59999;51.676;22.650;2023-04-24T01:06:29;8.45;73.22
72126;SHT31;59999;51.676;22.650;2023-04-24T01:08:57;8.42;73.23
72126;SHT31;59999;51.676;22.650;2023-04-24T01:11:25;8.41;73.29
72126;SHT31;59999;51.676;22.650;2023-04-24T01:13:51;8.41;73.28
72126;SHT31;59999;51.676;22.650;2023-04-24T01:16:18;8.37;73.44
72126;SHT31;59999;51.676;22.650;2023-04-24T01:18:47;8.31;73.53
72126;SHT31;59999;51.676;22.650;2023-04-24T01:21:14;8.30;73.56
72126;SHT31;59999;51.676;22.650;2023-04-24T01:23:43;8.28;73.72
72126;SHT31;59999;51.676;22.650;2023-04-24T01:26:09;8.24;73.84
72126;SHT31;59999;51.676;22.650;2023-04-24T01:28:35;8.21;73.91
72126;SHT31;59999;51.676;22.650;2023-04-24T01:31:02;8.18;73.99
72126;SHT31;59999;51.676;22.650;2023-04-24T01:33:28;8.13;74.03
72126;SHT31;59999;51.676;22.650;2023-04-24T01:35:54;8.15;74.11
72126;SHT31;59999;51.676;22.650;2023-04-24T01:38:20;8.13;74.12
72126;SHT31;59999;51.676;22.650;2023-04-24T01:40:46;8.13;74.18
72126;SHT31;59999;51.676;22.650;2023-04-24T01:43:13;8.13;74.22
72126;SHT31;59999;51.676;22.650;2023-04-24T01:45:39;8.08;74.20
72126;SHT31;59999;51.676;22.650;2023-04-24T01:48:05;8.07;74.24
72126;SHT31;59999;51.676;22.650;2023-04-24T01:50:31;8.04;74.30
72126;SHT31;59999;51.676;22.650;2023-04-24T01:52:57;8.04;74.33
72126;SHT31;59999;51.676;22.650;2023-04-24T01:55:23;8.00;74.40
72126;SHT31;59999;51.676;22.650;2023-04-24T01:57:52;7.98;74.37
72126;SHT31;59999;51.676;22.650;2023-04-24T02:00:18;7.94;74.38
72126;SHT31;59999;51.676;22.650;2023-04-24T02:02:44;7.93;74.46
72126;SHT31;59999;51.676;22.650;2023-04-24T02:05:10;7.93;74.53
72126;SHT31;59999;51.676;22.650;2023-04-24T02:07:36;7.90;74.54
72126;SHT31;59999;51.676;22.650;2023-04-24T02:10:03;7.89;74.60
72126;SHT31;59999;51.676;22.650;2023-04-24T02:12:30;7.84;74.60
72126;SHT31;59999;51.676;22.650;2023-04-24T02:14:55;7.83;74.69
72126;SHT31;59999;51.676;22.650;2023-04-24T02:17:21;7.84;74.67
72126;SHT31;59999;51.676;22.650;2023-04-24T02:19:48;7.82;74.73
72126;SHT31;59999;51.676;22.650;2023-04-24T02:22:14;7.80;74.74
72126;SHT31;59999;51.676;22.650;2023-04-24T02:24:40;7.76;74.81
72126;SHT31;59999;51.676;22.650;2023-04-24T02:27:06;7.75;74.85
72126;SHT31;59999;51.676;22.650;2023-04-24T02:29:32;7.67;74.88
72126;SHT31;59999;51.676;22.650;2023-04-24T02:31:58;7.63;74.94
72126;SHT31;59999;51.676;22.650;2023-04-24T02:34:24;7.58;75.02
72126;SHT31;59999;51.676;22.650;2023-04-24T02:36:50;7.54;75.10
72126;SHT31;59999;51.676;22.650;2023-04-24T02:39:16;7.51;75.21
72126;SHT31;59999;51.676;22.650;2023-04-24T02:41:43;7.42;75.35
72126;SHT31;59999;51.676;22.650;2023-04-24T02:44:09;7.39;75.44
72126;SHT31;59999;51.676;22.650;2023-04-24T02:46:35;7.38;75.46
72126;SHT31;59999;51.676;22.650;2023-04-24T02:49:01;7.38;75.50
72126;SHT31;59999;51.676;22.650;2023-04-24T02:51:28;7.36;75.60
72126;SHT31;59999;51.676;22.650;2023-04-24T02:53:55;7.34;75.63
72126;SHT31;59999;51.676;22.650;2023-04-24T02:56:21;7.36;75.59
72126;SHT31;59999;51.676;22.650;2023-04-24T02:58:47;7.34;75.53
72126;SHT31;59999;51.676;22.650;2023-04-24T03:01:13;7.34;75.56
72126;SHT31;59999;51.676;22.650;2023-04-24T03:03:39;7.38;75.49
72126;SHT31;59999;51.676;22.650;2023-04-24T03:06:05;7.39;75.45
72126;SHT31;59999;51.676;22.650;2023-04-24T03:08:33;7.44;75.52
72126;SHT31;59999;51.676;22.650;2023-04-24T03:11:00;7.46;75.48
72126;SHT31;59999;51.676;22.650;2023-04-24T03:13:26;7.48;75.46
72126;SHT31;59999;51.676;22.650;2023-04-24T03:15:52;7.49;75.45
72126;SHT31;59999;51.676;22.650;2023-04-24T03:18:19;7.52;75.44
72126;SHT31;59999;51.676;22.650;2023-04-24T03:20:47;7.56;75.42
72126;SHT31;59999;51.676;22.650;2023-04-24T03:23:13;7.55;75.47
72126;SHT31;59999;51.676;22.650;2023-04-24T03:25:39;7.56;75.46
72126;SHT31;59999;51.676;22.650;2023-04-24T03:28:05;7.56;75.48
72126;SHT31;59999;51.676;22.650;2023-04-24T03:30:31;7.58;75.57
72126;SHT31;59999;51.676;22.650;2023-04-24T03:32:57;7.58;75.54
72126;SHT31;59999;51.676;22.650;2023-04-24T03:35:23;7.61;75.56
72126;SHT31;59999;51.676;22.650;2023-04-24T03:37:49;7.63;75.53
72126;SHT31;59999;51.676;22.650;2023-04-24T03:40:15;7.67;75.54
72126;SHT31;59999;51.676;22.650;2023-04-24T03:42:41;7.72;75.51
72126;SHT31;59999;51.676;22.650;2023-04-24T03:45:07;7.77;75.33
72126;SHT31;59999;51.676;22.650;2023-04-24T03:47:33;7.83;75.17
72126;SHT31;59999;51.676;22.650;2023-04-24T03:50:00;7.91;75.21
72126;SHT31;59999;51.676;22.650;2023-04-24T03:52:25;7.94;75.09
72126;SHT31;59999;51.676;22.650;2023-04-24T03:54:52;8.01;74.96
72126;SHT31;59999;51.676;22.650;2023-04-24T03:57:17;8.07;74.96
72126;SHT31;59999;51.676;22.650;2023-04-24T03:59:43;8.13;74.90
72126;SHT31;59999;51.676;22.650;2023-04-24T04:02:10;8.18;74.96
72126;SHT31;59999;51.676;22.650;2023-04-24T04:04:36;8.24;74.95
72126;SHT31;59999;51.676;22.650;2023-04-24T04:07:01;8.28;74.99
72126;SHT31;59999;51.676;22.650;2023-04-24T04:09:29;8.31;74.95
72126;SHT31;59999;51.676;22.650;2023-04-24T04:11:54;8.37;74.93
72126;SHT31;59999;51.676;22.650;2023-04-24T04:14:21;8.44;74.96
72126;SHT31;59999;51.676;22.650;2023-04-24T04:16:47;8.49;74.89
72126;SHT31;59999;51.676;22.650;2023-04-24T04:19:13;8.55;74.98
72126;SHT31;59999;51.676;22.650;2023-04-24T04:21:39;8.58;75.04
72126;SHT31;59999;51.676;22.650;2023-04-24T04:24:05;8.66;74.86
72126;SHT31;59999;51.676;22.650;2023-04-24T04:26:32;8.72;74.89
72126;SHT31;59999;51.676;22.650;2023-04-24T04:28:59;8.79;74.73
72126;SHT31;59999;51.676;22.650;2023-04-24T04:31:26;8.84;74.33
72126;SHT31;59999;51.676;22.650;2023-04-24T04:33:52;8.92;74.16
72126;SHT31;59999;51.676;22.650;2023-04-24T04:36:17;9.02;73.94
72126;SHT31;59999;51.676;22.650;2023-04-24T04:38:44;9.07;73.87
72126;SHT31;59999;51.676;22.650;2023-04-24T04:41:10;9.17;73.79
72126;SHT31;59999;51.676;22.650;2023-04-24T04:43:36;9.27;73.59
72126;SHT31;59999;51.676;22.650;2023-04-24T04:46:03;9.41;73.51
72126;SHT31;59999;51.676;22.650;2023-04-24T04:48:29;9.51;73.15
72126;SHT31;59999;51.676;22.650;2023-04-24T04:50:57;9.62;73.02
72126;SHT31;59999;51.676;22.650;2023-04-24T04:53:23;9.78;72.93
72126;SHT31;59999;51.676;22.650;2023-04-24T04:55:49;9.95;72.81
72126;SHT31;59999;51.676;22.650;2023-04-24T04:58:15;10.12;72.63
72126;SHT31;59999;51.676;22.650;2023-04-24T05:00:41;10.27;72.24
72126;SHT31;59999;51.676;22.650;2023-04-24T05:03:08;10.43;72.00
72126;SHT31;59999;51.676;22.650;2023-04-24T05:05:33;10.60;71.32
72126;SHT31;59999;51.676;22.650;2023-04-24T05:08:00;10.75;69.89
72126;SHT31;59999;51.676;22.650;2023-04-24T05:10:25;10.92;69.72
72126;SHT31;59999;51.676;22.650;2023-04-24T05:12:52;11.11;69.05
72126;SHT31;59999;51.676;22.650;2023-04-24T05:15:17;11.26;68.50
72126;SHT31;59999;51.676;22.650;2023-04-24T05:17:43;11.40;68.46
72126;SHT31;59999;51.676;22.650;2023-04-24T05:20:10;11.56;67.70
72126;SHT31;59999;51.676;22.650;2023-04-24T05:22:36;11.66;67.57
72126;SHT31;59999;51.676;22.650;2023-04-24T05:25:02;11.70;66.67
72126;SHT31;59999;51.676;22.650;2023-04-24T05:27:28;11.74;66.50
72126;SHT31;59999;51.676;22.650;2023-04-24T05:29:54;11.80;66.44
72126;SHT31;59999;51.676;22.650;2023-04-24T05:32:20;11.91;66.99
72126;SHT31;59999;51.676;22.650;2023-04-24T05:34:46;12.04;66.25
72126;SHT31;59999;51.676;22.650;2023-04-24T05:37:12;12.12;65.56
72126;SHT31;59999;51.676;22.650;2023-04-24T05:39:38;12.22;65.79
72126;SHT31;59999;51.676;22.650;2023-04-24T05:42:04;12.29;65.29
72126;SHT31;59999;51.676;22.650;2023-04-24T05:44:30;12.41;65.10
72126;SHT31;59999;51.676;22.650;2023-04-24T05:46:56;12.53;64.47
72126;SHT31;59999;51.676;22.650;2023-04-24T05:49:23;12.59;64.50
72126;SHT31;59999;51.676;22.650;2023-04-24T05:51:49;12.73;65.04
72126;SHT31;59999;51.676;22.650;2023-04-24T05:54:14;12.77;63.81
72126;SHT31;59999;51.676;22.650;2023-04-24T05:56:40;12.89;63.36
72126;SHT31;59999;51.676;22.650;2023-04-24T05:59:06;12.97;63.02
72126;SHT31;59999;51.676;22.650;2023-04-24T06:01:33;13.03;62.46
72126;SHT31;59999;51.676;22.650;2023-04-24T06:03:59;13.11;62.68
72126;SHT31;59999;51.676;22.650;2023-04-24T06:06:25;13.22;62.83
72126;SHT31;59999;51.676;22.650;2023-04-24T06:08:51;13.31;62.39
72126;SHT31;59999;51.676;22.650;2023-04-24T06:11:17;13.41;62.62
72126;SHT31;59999;51.676;22.650;2023-04-24T06:13:43;13.47;62.73
72126;SHT31;59999;51.676;22.650;2023-04-24T06:16:09;13.54;63.00
72126;SHT31;59999;51.676;22.650;2023-04-24T06:18:35;13.61;62.03
72126;SHT31;59999;51.676;22.650;2023-04-24T06:21:01;13.69;62.32
72126;SHT31;59999;51.676;22.650;2023-04-24T06:23:27;13.73;62.06
72126;SHT31;59999;51.676;22.650;2023-04-24T06:25:53;13.85;62.28
72126;SHT31;59999;51.676;22.650;2023-04-24T06:28:19;13.96;62.38
72126;SHT31;59999;51.676;22.650;2023-04-24T06:30:45;14.03;60.75
72126;SHT31;59999;51.676;22.650;2023-04-24T06:33:11;14.12;60.29
72126;SHT31;59999;51.676;22.650;2023-04-24T06:35:37;14.20;61.54
72126;SHT31;59999;51.676;22.650;2023-04-24T06:38:04;14.33;60.43
72126;SHT31;59999;51.676;22.650;2023-04-24T06:40:30;14.38;59.89
72126;SHT31;59999;51.676;22.650;2023-04-24T06:42:56;14.47;58.90
72126;SHT31;59999;51.676;22.650;2023-04-24T06:45:23;14.60;59.73
72126;SHT31;59999;51.676;22.650;2023-04-24T06:47:49;14.72;60.41
72126;SHT31;59999;51.676;22.650;2023-04-24T06:50:16;14.88;59.89
72126;SHT31;59999;51.676;22.650;2023-04-24T06:52:42;15.00;59.26
72126;SHT31;59999;51.676;22.650;2023-04-24T06:55:08;15.13;60.87
72126;SHT31;59999;51.676;22.650;2023-04-24T06:57:35;15.24;57.25
72126;SHT31;59999;51.676;22.650;2023-04-24T07:00:03;15.33;57.49
72126;SHT31;59999;51.676;22.650;2023-04-24T07:02:30;15.37;57.01
72126;SHT31;59999;51.676;22.650;2023-04-24T07:04:56;15.46;58.14
72126;SHT31;59999;51.676;22.650;2023-04-24T07:07:22;15.57;56.78
72126;SHT31;59999;51.676;22.650;2023-04-24T07:09:49;15.70;57.60
72126;SHT31;59999;51.676;22.650;2023-04-24T07:12:16;15.77;55.36
72126;SHT31;59999;51.676;22.650;2023-04-24T07:14:42;15.84;56.63
72126;SHT31;59999;51.676;22.650;2023-04-24T07:17:08;15.97;56.27
72126;SHT31;59999;51.676;22.650;2023-04-24T07:19:35;16.05;55.85
72126;SHT31;59999;51.676;22.650;2023-04-24T07:22:01;16.09;55.26
72126;SHT31;59999;51.676;22.650;2023-04-24T07:24:27;16.16;54.98
72126;SHT31;59999;51.676;22.650;2023-04-24T07:26:54;16.22;53.66
72126;SHT31;59999;51.676;22.650;2023-04-24T07:29:20;16.28;56.06
72126;SHT31;59999;51.676;22.650;2023-04-24T07:31:46;16.38;54.95
72126;SHT31;59999;51.676;22.650;2023-04-24T07:34:12;16.40;53.65
72126;SHT31;59999;51.676;22.650;2023-04-24T07:36:38;16.49;54.56
72126;SHT31;59999;51.676;22.650;2023-04-24T07:39:05;16.61;55.32
72126;SHT31;59999;51.676;22.650;2023-04-24T07:41:31;16.70;54.34
72126;SHT31;59999;51.676;22.650;2023-04-24T07:43:58;16.83;55.29
72126;SHT31;59999;51.676;22.650;2023-04-24T07:46:24;16.92;52.64
72126;SHT31;59999;51.676;22.650;2023-04-24T07:48:50;17.07;53.35
72126;SHT31;59999;51.676;22.650;2023-04-24T07:51:17;17.18;51.19
72126;SHT31;59999;51.676;22.650;2023-04-24T07:53:43;17.14;49.99
72126;SHT31;59999;51.676;22.650;2023-04-24T07:56:09;17.15;51.19
72126;SHT31;59999;51.676;22.650;2023-04-24T07:58:35;17.19;51.87
72126;SHT31;59999;51.676;22.650;2023-04-24T08:01:01;17.24;51.54
72126;SHT31;59999;51.676;22.650;2023-04-24T08:03:27;17.28;51.30
72126;SHT31;59999;51.676;22.650;2023-04-24T08:05:53;17.34;52.57
72126;SHT31;59999;51.676;22.650;2023-04-24T08:08:22;17.46;52.73
72126;SHT31;59999;51.676;22.650;2023-04-24T08:10:48;17.50;52.36
72126;SHT31;59999;51.676;22.650;2023-04-24T08:13:14;17.59;51.38
72126;SHT31;59999;51.676;22.650;2023-04-24T08:15:40;17.70;52.89
72126;SHT31;59999;51.676;22.650;2023-04-24T08:18:06;17.77;51.82
72126;SHT31;59999;51.676;22.650;2023-04-24T08:20:32;17.89;51.26
72126;SHT31;59999;51.676;22.650;2023-04-24T08:22:59;17.96;50.49
72126;SHT31;59999;51.676;22.650;2023-04-24T08:25:24;18.07;52.20
72126;SHT31;59999;51.676;22.650;2023-04-24T08:27:51;18.10;51.86
72126;SHT31;59999;51.676;22.650;2023-04-24T08:30:17;18.17;51.30
72126;SHT31;59999;51.676;22.650;2023-04-24T08:32:44;18.24;51.29
72126;SHT31;59999;51.676;22.650;2023-04-24T08:35:09;18.30;49.51
72126;SHT31;59999;51.676;22.650;2023-04-24T08:37:36;18.37;50.02
72126;SHT31;59999;51.676;22.650;2023-04-24T08:40:13;18.40;49.31
72126;SHT31;59999;51.676;22.650;2023-04-24T08:42:43;18.47;51.31
72126;SHT31;59999;51.676;22.650;2023-04-24T08:45:11;18.51;49.38
72126;SHT31;59999;51.676;22.650;2023-04-24T08:47:38;18.55;49.65
72126;SHT31;59999;51.676;22.650;2023-04-24T08:50:05;18.58;48.29
72126;SHT31;59999;51.676;22.650;2023-04-24T08:52:34;18.65;49.90
72126;SHT31;59999;51.676;22.650;2023-04-24T08:55:00;18.73;48.85
72126;SHT31;59999;51.676;22.650;2023-04-24T08:57:27;18.79;49.72
72126;SHT31;59999;51.676;22.650;2023-04-24T08:59:54;18.82;50.64
72126;SHT31;59999;51.676;22.650;2023-04-24T09:02:21;18.88;52.28
72126;SHT31;59999;51.676;22.650;2023-04-24T09:04:47;18.90;51.56
72126;SHT31;59999;51.676;22.650;2023-04-24T09:07:15;19.04;49.53
72126;SHT31;59999;51.676;22.650;2023-04-24T09:09:42;19.09;49.69
72126;SHT31;59999;51.676;22.650;2023-04-24T09:12:09;19.17;49.72
72126;SHT31;59999;51.676;22.650;2023-04-24T09:14:35;19.16;51.04
72126;SHT31;59999;51.676;22.650;2023-04-24T09:17:04;19.20;47.66
72126;SHT31;59999;51.676;22.650;2023-04-24T09:19:30;19.24;49.41
72126;SHT31;59999;51.676;22.650;2023-04-24T09:21:56;19.34;51.11
72126;SHT31;59999;51.676;22.650;2023-04-24T09:24:22;19.40;49.04
72126;SHT31;59999;51.676;22.650;2023-04-24T09:26:50;19.48;48.20
72126;SHT31;59999;51.676;22.650;2023-04-24T09:29:21;19.55;47.07
72126;SHT31;59999;51.676;22.650;2023-04-24T09:31:47;19.65;46.97
72126;SHT31;59999;51.676;22.650;2023-04-24T09:34:13;19.75;50.65
72126;SHT31;59999;51.676;22.650;2023-04-24T09:36:41;19.85;47.77
72126;SHT31;59999;51.676;22.650;2023-04-24T09:39:10;19.90;47.53
72126;SHT31;59999;51.676;22.650;2023-04-24T09:41:47;19.98;45.63
72126;SHT31;59999;51.676;22.650;2023-04-24T09:44:15;20.00;46.64
72126;SHT31;59999;51.676;22.650;2023-04-24T09:46:42;20.08;46.64
72126;SHT31;59999;51.676;22.650;2023-04-24T09:49:13;20.17;47.14
72126;SHT31;59999;51.676;22.650;2023-04-24T09:51:39;20.27;44.45
72126;SHT31;59999;51.676;22.650;2023-04-24T09:54:16;20.33;46.18
72126;SHT31;59999;51.676;22.650;2023-04-24T09:56:44;20.39;43.83
72126;SHT31;59999;51.676;22.650;2023-04-24T09:59:14;20.43;43.67
72126;SHT31;59999;51.676;22.650;2023-04-24T10:01:40;20.44;47.34
72126;SHT31;59999;51.676;22.650;2023-04-24T10:04:22;20.53;45.15
72126;SHT31;59999;51.676;22.650;2023-04-24T10:06:50;20.58;42.54
72126;SHT31;59999;51.676;22.650;2023-04-24T10:09:17;20.61;43.64
72126;SHT31;59999;51.676;22.650;2023-04-24T10:11:45;20.64;43.22
72126;SHT31;59999;51.676;22.650;2023-04-24T10:14:16;20.67;45.25
72126;SHT31;59999;51.676;22.650;2023-04-24T10:16:43;20.74;46.08
72126;SHT31;59999;51.676;22.650;2023-04-24T10:19:10;20.75;42.21
72126;SHT31;59999;51.676;22.650;2023-04-24T10:21:37;20.81;43.05
72126;SHT31;59999;51.676;22.650;2023-04-24T10:24:10;20.83;42.12
72126;SHT31;59999;51.676;22.650;2023-04-24T10:26:38;20.77;41.78
72126;SHT31;59999;51.676;22.650;2023-04-24T10:29:05;20.84;42.66
72126;SHT31;59999;51.676;22.650;2023-04-24T10:31:36;20.92;43.55
72126;SHT31;59999;51.676;22.650;2023-04-24T10:34:05;20.94;41.94
72126;SHT31;59999;51.676;22.650;2023-04-24T10:36:33;20.94;42.24
72126;SHT31;59999;51.676;22.650;2023-04-24T10:39:05;20.98;39.68
72126;SHT31;59999;51.676;22.650;2023-04-24T10:41:37;20.94;41.94
72126;SHT31;59999;51.676;22.650;2023-04-24T10:44:14;21.08;46.00
72126;SHT31;59999;51.676;22.650;2023-04-24T10:46:45;21.15;41.45
72126;SHT31;59999;51.676;22.650;2023-04-24T10:49:11;21.18;42.11
72126;SHT31;59999;51.676;22.650;2023-04-24T10:51:52;21.31;40.77
72126;SHT31;59999;51.676;22.650;2023-04-24T10:54:27;21.29;37.86
72126;SHT31;59999;51.676;22.650;2023-04-24T11:02:38;21.31;39.80
72126;SHT31;59999;51.676;22.650;2023-04-24T11:05:06;21.38;39.80
72126;SHT31;59999;51.676;22.650;2023-04-24T11:08:13;21.39;38.51
72126;SHT31;59999;51.676;22.650;2023-04-24T11:10:43;21.38;37.59
72126;SHT31;59999;51.676;22.650;2023-04-24T11:13:09;21.49;39.84
72126;SHT31;59999;51.676;22.650;2023-04-24T11:15:35;21.57;41.70
72126;SHT31;59999;51.676;22.650;2023-04-24T11:18:02;21.67;40.99
72126;SHT31;59999;51.676;22.650;2023-04-24T11:20:27;21.79;39.23
72126;SHT31;59999;51.676;22.650;2023-04-24T11:22:54;21.84;38.04
72126;SHT31;59999;51.676;22.650;2023-04-24T11:25:21;21.89;37.62
72126;SHT31;59999;51.676;22.650;2023-04-24T11:27:49;21.97;37.76
72126;SHT31;59999;51.676;22.650;2023-04-24T11:30:20;21.79;39.52
72126;SHT31;59999;51.676;22.650;2023-04-24T11:32:50;21.83;36.35
72126;SHT31;59999;51.676;22.650;2023-04-24T11:35:18;21.77;39.19
72126;SHT31;59999;51.676;22.650;2023-04-24T11:37:50;21.76;39.01
72126;SHT31;59999;51.676;22.650;2023-04-24T11:40:17;21.89;37.06
72126;SHT31;59999;51.676;22.650;2023-04-24T11:42:45;21.87;34.73
72126;SHT31;59999;51.676;22.650;2023-04-24T11:45:16;21.84;37.57
72126;SHT31;59999;51.676;22.650;2023-04-24T11:47:43;21.97;37.92
72126;SHT31;59999;51.676;22.650;2023-04-24T11:50:14;21.89;36.64
72126;SHT31;59999;51.676;22.650;2023-04-24T11:52:43;21.98;37.35
72126;SHT31;59999;51.676;22.650;2023-04-24T11:57:48;21.94;35.29
72126;SHT31;59999;51.676;22.650;2023-04-24T12:00:22;21.47;38.57
72126;SHT31;59999;51.676;22.650;2023-04-24T12:02:49;21.23;37.06
72126;SHT31;59999;51.676;22.650;2023-04-24T12:05:26;21.35;37.21
72126;SHT31;59999;51.676;22.650;2023-04-24T12:07:52;21.32;35.97
72126;SHT31;59999;51.676;22.650;2023-04-24T12:10:23;21.05;35.89
72126;SHT31;59999;51.676;22.650;2023-04-24T12:12:50;21.09;38.10
72126;SHT31;59999;51.676;22.650;2023-04-24T12:15:17;21.19;38.60
72126;SHT31;59999;51.676;22.650;2023-04-24T12:17:44;21.08;40.90
72126;SHT31;59999;51.676;22.650;2023-04-24T12:20:11;21.29;37.62
72126;SHT31;59999;51.676;22.650;2023-04-24T12:22:51;21.53;36.37
72126;SHT31;59999;51.676;22.650;2023-04-24T12:25:27;21.77;39.09
72126;SHT31;59999;51.676;22.650;2023-04-24T12:27:55;21.98;37.33
72126;SHT31;59999;51.676;22.650;2023-04-24T12:33:06;21.77;35.27
72126;SHT31;59999;51.676;22.650;2023-04-24T12:35:33;21.71;36.37
72126;SHT31;59999;51.676;22.650;2023-04-24T12:38:10;21.81;35.65
72126;SHT31;59999;51.676;22.650;2023-04-24T12:40:37;21.98;36.76
72126;SHT31;59999;51.676;22.650;2023-04-24T12:45:39;22.05;35.91
72126;SHT31;59999;51.676;22.650;2023-04-24T12:48:05;21.83;36.13
72126;SHT31;59999;51.676;22.650;2023-04-24T12:50:31;21.53;39.31
72126;SHT31;59999;51.676;22.650;2023-04-24T12:52:57;21.45;40.76
72126;SHT31;59999;51.676;22.650;2023-04-24T12:55:23;21.16;39.77
72126;SHT31;59999;51.676;22.650;2023-04-24T12:57:49;21.04;36.98
72126;SHT31;59999;51.676;22.650;2023-04-24T13:00:15;21.19;40.38
72126;SHT31;59999;51.676;22.650;2023-04-24T13:02:41;21.09;36.75
72126;SHT31;59999;51.676;22.650;2023-04-24T13:05:08;20.91;36.57
72126;SHT31;59999;51.676;22.650;2023-04-24T13:07:34;21.09;41.14
72126;SHT31;59999;51.676;22.650;2023-04-24T13:10:00;21.49;39.21
72126;SHT31;59999;51.676;22.650;2023-04-24T13:12:26;21.79;40.17
72126;SHT31;59999;51.676;22.650;2023-04-24T13:14:53;21.97;36.07
72126;SHT31;59999;51.676;22.650;2023-04-24T13:17:19;22.18;35.81
72126;SHT31;59999;51.676;22.650;2023-04-24T13:19:45;22.21;34.75
72126;SHT31;59999;51.676;22.650;2023-04-24T13:22:12;21.81;36.23
72126;SHT31;59999;51.676;22.650;2023-04-24T13:24:38;21.45;36.75
72126;SHT31;59999;51.676;22.650;2023-04-24T13:27:08;21.39;37.32
72126;SHT31;59999;51.676;22.650;2023-04-24T13:29:35;21.56;37.21
72126;SHT31;59999;51.676;22.650;2023-04-24T13:32:01;21.80;36.44
72126;SHT31;59999;51.676;22.650;2023-04-24T13:34:27;22.01;36.98
72126;SHT31;59999;51.676;22.650;2023-04-24T13:36:55;22.04;36.28
72126;SHT31;59999;51.676;22.650;2023-04-24T13:39:22;22.11;36.45
72126;SHT31;59999;51.676;22.650;2023-04-24T13:41:48;22.00;36.68
72126;SHT31;59999;51.676;22.650;2023-04-24T13:44:15;21.86;36.17
72126;SHT31;59999;51.676;22.650;2023-04-24T13:46:42;21.94;36.71
72126;SHT31;59999;51.676;22.650;2023-04-24T13:49:11;22.10;37.49
72126;SHT31;59999;51.676;22.650;2023-04-24T13:51:37;22.24;36.24
72126;SHT31;59999;51.676;22.650;2023-04-24T13:54:03;22.41;34.74
72126;SHT31;59999;51.676;22.650;2023-04-24T13:56:29;22.51;35.71
72126;SHT31;59999;51.676;22.650;2023-04-24T13:58:55;22.58;34.95
72126;SHT31;59999;51.676;22.650;2023-04-24T14:01:22;22.72;36.61
72126;SHT31;59999;51.676;22.650;2023-04-24T14:03:51;22.86;36.49
72126;SHT31;59999;51.676;22.650;2023-04-24T14:06:18;23.00;34.29
72126;SHT31;59999;51.676;22.650;2023-04-24T14:08:44;23.14;34.07
72126;SHT31;59999;51.676;22.650;2023-04-24T14:11:10;23.17;33.50
72126;SHT31;59999;51.676;22.650;2023-04-24T14:13:36;23.14;34.48
72126;SHT31;59999;51.676;22.650;2023-04-24T14:16:04;23.31;33.34
72126;SHT31;59999;51.676;22.650;2023-04-24T14:18:30;23.54;34.82
72126;SHT31;59999;51.676;22.650;2023-04-24T14:20:56;23.53;32.61
72126;SHT31;59999;51.676;22.650;2023-04-24T14:23:22;23.82;32.59
72126;SHT31;59999;51.676;22.650;2023-04-24T14:25:49;23.75;31.10
72126;SHT31;59999;51.676;22.650;2023-04-24T14:28:17;23.79;32.49
72126;SHT31;59999;51.676;22.650;2023-04-24T14:30:44;23.98;32.78
72126;SHT31;59999;51.676;22.650;2023-04-24T14:33:10;24.16;31.71
72126;SHT31;59999;51.676;22.650;2023-04-24T14:35:37;24.17;30.57
72126;SHT31;59999;51.676;22.650;2023-04-24T14:38:03;24.47;31.22
72126;SHT31;59999;51.676;22.650;2023-04-24T14:40:29;24.81;30.88
72126;SHT31;59999;51.676;22.650;2023-04-24T14:42:56;24.56;32.20
72126;SHT31;59999;51.676;22.650;2023-04-24T14:45:24;24.36;31.39
72126;SHT31;59999;51.676;22.650;2023-04-24T14:47:50;24.08;32.82
72126;SHT31;59999;51.676;22.650;2023-04-24T14:50:17;23.57;33.17
72126;SHT31;59999;51.676;22.650;2023-04-24T14:52:43;23.62;33.59
72126;SHT31;59999;51.676;22.650;2023-04-24T14:55:09;23.96;33.69
72126;SHT31;59999;51.676;22.650;2023-04-24T14:57:35;24.40;32.12
72126;SHT31;59999;51.676;22.650;2023-04-24T15:00:06;24.57;32.57
72126;SHT31;59999;51.676;22.650;2023-04-24T15:02:34;24.80;30.92
72126;SHT31;59999;51.676;22.650;2023-04-24T15:05:03;24.56;30.46
72126;SHT31;59999;51.676;22.650;2023-04-24T15:07:29;24.51;30.45
72126;SHT31;59999;51.676;22.650;2023-04-24T15:09:56;24.77;30.03
72126;SHT31;59999;51.676;22.650;2023-04-24T15:12:22;24.92;30.91
72126;SHT31;59999;51.676;22.650;2023-04-24T15:14:48;24.74;29.76
72126;SHT31;59999;51.676;22.650;2023-04-24T15:17:14;24.84;29.91
72126;SHT31;59999;51.676;22.650;2023-04-24T15:19:40;24.91;30.50
72126;SHT31;59999;51.676;22.650;2023-04-24T15:22:06;24.50;30.74
72126;SHT31;59999;51.676;22.650;2023-04-24T15:24:32;24.34;31.40
72126;SHT31;59999;51.676;22.650;2023-04-24T15:26:59;23.83;31.69
72126;SHT31;59999;51.676;22.650;2023-04-24T15:29:25;23.34;32.12
72126;SHT31;59999;51.676;22.650;2023-04-24T15:31:52;23.14;34.98